createdAt,value
2023-03-31T00:02:23.591Z,5.70
2023-03-31T00:04:53.679Z,4.47
2023-03-31T00:07:24.899Z,4.07
2023-03-31T00:10:06.866Z,3.67
2023-03-31T00:12:42.548Z,3.72
2023-03-31T00:15:09.781Z,5.40
2023-03-31T00:17:36.972Z,4.80
2023-03-31T00:20:05.764Z,4.90
2023-03-31T00:22:32.898Z,5.20
2023-03-31T00:25:00.486Z,4.15
2023-03-31T00:27:28.450Z,5.57
2023-03-31T00:29:55.724Z,6.13
2023-03-31T00:32:22.997Z,5.05
2023-03-31T00:34:50.217Z,5.18
2023-03-31T00:37:17.479Z,4.72
2023-03-31T00:39:44.582Z,4.60
2023-03-31T00:42:15.786Z,5.22
2023-03-31T00:45:01.721Z,5.38
2023-03-31T00:47:30.209Z,4.88
2023-03-31T00:49:58.562Z,6.43
2023-03-31T00:52:28.751Z,5.00
2023-03-31T00:54:57.376Z,4.50
2023-03-31T00:57:28.601Z,4.95
2023-03-31T00:59:59.583Z,5.15
2023-03-31T01:02:26.871Z,5.50
2023-03-31T01:04:57.461Z,5.45
2023-03-31T01:07:33.606Z,5.78
2023-03-31T01:10:02.298Z,5.72
2023-03-31T01:12:29.623Z,5.65
2023-03-31T01:14:56.821Z,5.93
2023-03-31T01:17:24.946Z,7.45
2023-03-31T01:19:57.816Z,7.00
2023-03-31T01:22:34.614Z,5.50
2023-03-31T01:25:24.058Z,5.97
2023-03-31T01:28:09.962Z,5.43
2023-03-31T01:30:57.886Z,6.00
2023-03-31T01:33:25.047Z,5.70
2023-03-31T01:36:03.209Z,5.63
2023-03-31T01:38:41.165Z,6.00
2023-03-31T01:41:12.096Z,6.28
2023-03-31T01:43:47.201Z,6.32
2023-03-31T01:46:17.503Z,5.97
2023-03-31T01:49:03.395Z,7.82
2023-03-31T01:51:36.824Z,7.22
2023-03-31T01:54:07.887Z,6.53
2023-03-31T01:56:40.798Z,6.78
2023-03-31T01:59:11.016Z,7.10
2023-03-31T02:01:40.739Z,6.30
2023-03-31T02:04:23.388Z,6.72
2023-03-31T02:06:56.361Z,6.40
2023-03-31T02:09:25.773Z,5.63
2023-03-31T02:11:53.897Z,5.38
2023-03-31T02:14:23.078Z,5.18
2023-03-31T02:16:52.234Z,5.65
2023-03-31T02:19:20.351Z,4.90
2023-03-31T02:21:49.891Z,4.95
2023-03-31T02:24:18.272Z,5.97
2023-03-31T02:27:08.703Z,4.63
2023-03-31T02:29:36.075Z,6.50
2023-03-31T02:32:21.308Z,8.45
2023-03-31T02:34:48.544Z,10.70
2023-03-31T02:37:16.120Z,12.15
2023-03-31T02:39:45.237Z,8.55
2023-03-31T02:42:12.432Z,9.00
2023-03-31T02:44:40.297Z,8.63
2023-03-31T02:47:09.334Z,7.95
2023-03-31T02:49:38.027Z,5.47
2023-03-31T02:52:20.760Z,5.88
2023-03-31T02:54:56.960Z,5.07
2023-03-31T02:57:33.893Z,4.75
2023-03-31T03:00:08.169Z,4.40
2023-03-31T03:02:44.628Z,4.03
2023-03-31T03:05:11.855Z,3.85
2023-03-31T03:07:45.536Z,4.07
2023-03-31T03:10:29.349Z,4.28
2023-03-31T03:15:27.062Z,3.55
2023-03-31T03:17:54.361Z,3.38
2023-03-31T03:20:22.004Z,4.40
2023-03-31T03:22:49.396Z,3.65
2023-03-31T03:25:20.807Z,4.40
2023-03-31T03:27:48.150Z,5.05
2023-03-31T03:30:15.352Z,9.38
2023-03-31T03:32:43.111Z,6.93
2023-03-31T03:35:10.770Z,5.63
2023-03-31T03:37:38.303Z,5.68
2023-03-31T03:40:06.251Z,5.03
2023-03-31T03:42:33.986Z,3.60
2023-03-31T03:45:01.458Z,4.45
2023-03-31T03:47:29.140Z,4.13
2023-03-31T03:49:56.480Z,7.00
2023-03-31T03:52:23.612Z,7.47
2023-03-31T03:54:50.706Z,5.75
2023-03-31T03:57:17.881Z,5.63
2023-03-31T03:59:45.112Z,4.60
2023-03-31T04:02:12.591Z,7.60
2023-03-31T04:04:39.876Z,5.05
2023-03-31T04:07:07.170Z,5.40
2023-03-31T04:09:34.343Z,5.35
2023-03-31T04:12:01.622Z,4.70
2023-03-31T04:14:28.801Z,4.68
2023-03-31T04:16:56.498Z,3.40
2023-03-31T04:19:25.954Z,3.75
2023-03-31T04:21:59.056Z,3.38
2023-03-31T04:24:30.658Z,3.35
2023-03-31T04:26:58.480Z,5.72
2023-03-31T04:29:26.774Z,6.60
2023-03-31T04:31:58.671Z,6.30
2023-03-31T04:34:35.179Z,4.90
2023-03-31T04:37:02.981Z,4.53
2023-03-31T04:39:33.612Z,3.30
2023-03-31T04:42:01.520Z,3.97
2023-03-31T04:44:29.055Z,5.88
2023-03-31T04:46:56.265Z,6.35
2023-03-31T04:49:23.444Z,6.28
2023-03-31T04:51:50.869Z,6.60
2023-03-31T04:54:17.982Z,6.60
2023-03-31T04:56:45.252Z,6.22
2023-03-31T04:59:12.456Z,7.03
2023-03-31T05:01:39.744Z,6.28
2023-03-31T05:04:07.098Z,7.00
2023-03-31T05:06:34.434Z,5.07
2023-03-31T05:09:01.827Z,6.25
2023-03-31T05:11:29.104Z,4.35
2023-03-31T05:13:56.431Z,6.18
2023-03-31T05:16:23.604Z,5.55
2023-03-31T05:18:50.852Z,8.18
2023-03-31T05:21:19.258Z,7.55
2023-03-31T05:23:46.569Z,8.57
2023-03-31T05:26:14.073Z,7.32
2023-03-31T05:28:41.681Z,7.55
2023-03-31T05:31:09.420Z,9.07
2023-03-31T05:33:40.399Z,6.78
2023-03-31T05:36:09.243Z,6.95
2023-03-31T05:38:36.874Z,9.95
2023-03-31T05:41:04.089Z,10.25
2023-03-31T05:43:31.335Z,9.75
2023-03-31T05:45:58.650Z,10.60
2023-03-31T05:48:25.905Z,8.23
2023-03-31T05:50:53.122Z,8.13
2023-03-31T05:53:20.223Z,11.27
2023-03-31T05:55:47.319Z,7.72
2023-03-31T05:58:14.473Z,7.78
2023-03-31T06:00:41.696Z,8.13
2023-03-31T06:03:08.962Z,6.65
2023-03-31T06:05:36.381Z,8.88
2023-03-31T06:08:03.843Z,7.93
2023-03-31T06:10:31.198Z,9.30
2023-03-31T06:12:58.339Z,7.75
2023-03-31T06:15:25.519Z,10.40
2023-03-31T06:17:52.681Z,7.30
2023-03-31T06:20:27.237Z,7.30
2023-03-31T06:22:55.932Z,7.35
2023-03-31T06:25:23.094Z,7.32
2023-03-31T06:27:50.308Z,6.60
2023-03-31T06:30:17.517Z,5.05
2023-03-31T06:32:44.661Z,3.20
2023-03-31T06:35:11.953Z,3.13
2023-03-31T06:37:39.161Z,1.90
2023-03-31T06:40:06.649Z,1.80
2023-03-31T06:42:34.939Z,2.22
2023-03-31T06:45:02.085Z,1.92
2023-03-31T06:47:29.261Z,2.30
2023-03-31T06:49:56.418Z,1.90
2023-03-31T06:52:23.616Z,1.75
2023-03-31T06:54:51.034Z,1.83
2023-03-31T06:57:18.322Z,1.60
2023-03-31T06:59:45.464Z,2.08
2023-03-31T07:02:12.715Z,2.22
2023-03-31T07:04:40.014Z,1.60
2023-03-31T07:07:07.225Z,2.08
2023-03-31T07:09:34.350Z,2.28
2023-03-31T07:12:01.738Z,1.63
2023-03-31T07:14:28.989Z,1.25
2023-03-31T07:16:56.242Z,1.60
2023-03-31T07:19:23.386Z,1.75
2023-03-31T07:21:51.379Z,1.75
2023-03-31T07:24:18.656Z,1.88
2023-03-31T07:26:45.994Z,1.55
2023-03-31T07:29:13.136Z,1.90
2023-03-31T07:31:40.434Z,3.22
2023-03-31T07:34:07.671Z,1.65
2023-03-31T07:36:34.873Z,1.83
2023-03-31T07:39:02.062Z,1.75
2023-03-31T07:41:29.277Z,1.20
2023-03-31T07:43:56.413Z,1.63
2023-03-31T07:46:25.106Z,1.85
2023-03-31T07:48:52.928Z,1.23
2023-03-31T07:51:21.689Z,2.10
2023-03-31T07:53:49.593Z,1.48
2023-03-31T07:56:17.416Z,1.10
2023-03-31T07:58:45.222Z,0.85
2023-03-31T08:01:17.105Z,1.00
2023-03-31T08:03:45.140Z,0.80
2023-03-31T08:06:12.436Z,0.93
2023-03-31T08:08:46.034Z,2.30
2023-03-31T08:13:41.331Z,1.10
2023-03-31T08:16:08.856Z,1.25
2023-03-31T08:18:36.436Z,0.90
2023-03-31T08:21:03.674Z,0.70
2023-03-31T08:23:30.949Z,0.90
2023-03-31T08:26:08.561Z,0.82
2023-03-31T08:28:39.323Z,0.80
2023-03-31T08:31:07.844Z,1.20
2023-03-31T08:33:35.874Z,0.90
2023-03-31T08:36:04.041Z,0.90
2023-03-31T08:38:31.865Z,0.80
2023-03-31T08:41:02.933Z,0.98
2023-03-31T08:43:35.967Z,0.80
2023-03-31T08:46:04.326Z,1.00
2023-03-31T08:48:35.048Z,0.82
2023-03-31T08:51:06.550Z,1.70
2023-03-31T08:53:40.238Z,0.73
2023-03-31T08:58:40.894Z,0.90
2023-03-31T09:01:26.987Z,0.80
2023-03-31T09:04:13.123Z,0.52
2023-03-31T09:06:46.461Z,0.63
2023-03-31T09:09:28.951Z,0.57
2023-03-31T09:11:58.150Z,0.60
2023-03-31T09:14:32.180Z,0.80
2023-03-31T09:17:18.090Z,0.80
2023-03-31T09:19:54.607Z,1.02
2023-03-31T09:22:27.526Z,0.80
2023-03-31T09:25:04.539Z,1.05
2023-03-31T09:27:34.972Z,0.90
2023-03-31T09:30:15.786Z,0.68
2023-03-31T09:32:43.457Z,1.10
2023-03-31T09:35:26.684Z,0.90
2023-03-31T09:37:54.704Z,0.63
2023-03-31T09:40:23.517Z,0.70
2023-03-31T09:43:09.950Z,1.05
2023-03-31T09:45:37.126Z,1.20
2023-03-31T09:48:11.855Z,2.53
2023-03-31T09:50:43.019Z,1.35
2023-03-31T09:53:16.127Z,1.50
2023-03-31T09:55:48.722Z,1.15
2023-03-31T09:58:16.858Z,0.90
2023-03-31T10:00:45.297Z,1.00
2023-03-31T10:03:14.119Z,1.30
2023-03-31T10:05:55.001Z,1.08
2023-03-31T10:08:32.402Z,1.02
2023-03-31T10:11:02.634Z,1.20
2023-03-31T10:13:31.316Z,1.02
2023-03-31T10:16:08.849Z,1.50
2023-03-31T10:18:37.659Z,1.27
2023-03-31T10:21:07.240Z,1.25
2023-03-31T10:23:36.161Z,1.38
2023-03-31T10:26:04.074Z,1.55
2023-03-31T10:28:32.955Z,1.50
2023-03-31T10:31:04.340Z,1.92
2023-03-31T10:33:34.788Z,1.88
2023-03-31T10:36:10.857Z,1.95
2023-03-31T10:38:45.316Z,1.55
2023-03-31T10:41:12.980Z,1.55
2023-03-31T10:43:43.962Z,1.50
2023-03-31T10:46:12.969Z,1.33
2023-03-31T10:48:41.608Z,1.98
2023-03-31T10:51:19.176Z,1.83
2023-03-31T10:53:48.076Z,1.55
2023-03-31T10:56:19.281Z,1.60
2023-03-31T10:59:04.628Z,1.70
2023-03-31T11:01:38.466Z,1.65
2023-03-31T11:04:09.606Z,1.17
2023-03-31T11:06:53.083Z,1.30
2023-03-31T11:09:35.708Z,0.68
2023-03-31T11:12:13.644Z,1.00
2023-03-31T11:14:41.565Z,1.00
2023-03-31T11:17:24.092Z,0.98
2023-03-31T11:20:07.227Z,0.70
2023-03-31T11:22:41.809Z,0.80
2023-03-31T11:25:13.808Z,0.60
2023-03-31T11:27:59.629Z,1.10
2023-03-31T11:30:31.464Z,0.80
2023-03-31T11:33:17.491Z,1.00
2023-03-31T11:36:08.352Z,0.90
2023-03-31T11:38:44.708Z,0.98
2023-03-31T11:41:14.436Z,0.93
2023-03-31T11:43:46.807Z,0.82
2023-03-31T11:46:16.001Z,1.30
2023-03-31T11:48:46.169Z,0.90
2023-03-31T11:51:17.653Z,1.13
2023-03-31T11:53:46.063Z,1.17
2023-03-31T11:56:14.000Z,0.77
2023-03-31T11:58:45.351Z,1.33
2023-03-31T12:01:19.575Z,0.85
2023-03-31T12:03:55.912Z,0.77
2023-03-31T12:06:24.808Z,1.30
2023-03-31T12:09:08.477Z,1.20
2023-03-31T12:11:44.730Z,0.85
2023-03-31T12:14:24.693Z,1.10
2023-03-31T12:17:11.943Z,1.30
2023-03-31T12:19:45.674Z,1.00
2023-03-31T12:22:16.152Z,1.15
2023-03-31T12:24:43.328Z,0.98
2023-03-31T12:27:19.792Z,0.88
2023-03-31T12:29:49.336Z,1.02
2023-03-31T12:32:19.048Z,1.15
2023-03-31T12:34:49.585Z,0.95
2023-03-31T12:37:35.774Z,1.10
2023-03-31T12:40:19.176Z,1.05
2023-03-31T12:42:56.597Z,0.57
2023-03-31T12:45:31.458Z,0.75
2023-03-31T12:48:21.290Z,0.63
2023-03-31T12:51:04.092Z,0.52
2023-03-31T12:53:34.505Z,0.75
2023-03-31T12:56:01.767Z,0.60
2023-03-31T12:58:33.991Z,0.52
2023-03-31T13:01:11.351Z,0.60
2023-03-31T13:03:41.496Z,0.63
2023-03-31T13:06:11.297Z,0.73
2023-03-31T13:08:58.217Z,0.60
2023-03-31T13:11:31.594Z,0.57
2023-03-31T13:16:47.104Z,0.70
2023-03-31T13:19:27.329Z,0.80
2023-03-31T13:21:56.188Z,0.77
2023-03-31T13:24:24.057Z,0.55
2023-03-31T13:26:54.087Z,0.70
2023-03-31T13:29:27.247Z,0.93
2023-03-31T13:32:03.896Z,0.68
2023-03-31T13:34:31.113Z,0.63
2023-03-31T13:37:14.432Z,1.05
2023-03-31T13:40:08.860Z,0.52
2023-03-31T13:45:07.386Z,1.08
2023-03-31T13:47:46.924Z,0.90
2023-03-31T13:50:19.958Z,1.20
2023-03-31T13:53:03.792Z,0.63
2023-03-31T13:55:36.996Z,0.70
2023-03-31T13:58:29.951Z,1.02
2023-03-31T14:01:14.279Z,0.88
2023-03-31T14:04:11.249Z,0.90
2023-03-31T14:06:41.027Z,0.77
2023-03-31T14:09:12.784Z,1.00
2023-03-31T14:11:39.968Z,1.00
2023-03-31T14:14:12.091Z,1.08
2023-03-31T14:16:41.429Z,1.27
2023-03-31T14:21:53.736Z,1.48
2023-03-31T14:24:28.425Z,1.10
2023-03-31T14:27:12.398Z,1.30
2023-03-31T14:29:48.230Z,1.45
2023-03-31T14:32:32.347Z,0.95
2023-03-31T14:35:05.797Z,1.20
2023-03-31T14:37:33.176Z,0.90
2023-03-31T14:40:03.383Z,1.23
2023-03-31T14:42:40.009Z,0.90
2023-03-31T14:45:18.299Z,1.13
2023-03-31T14:47:54.383Z,1.08
2023-03-31T14:50:21.582Z,1.17
2023-03-31T14:52:50.179Z,0.80
2023-03-31T14:55:18.164Z,0.60
2023-03-31T14:57:47.172Z,1.02
2023-03-31T15:00:22.165Z,0.82
2023-03-31T15:02:49.973Z,1.13
2023-03-31T15:05:24.648Z,1.60
2023-03-31T15:07:52.012Z,1.50
2023-03-31T15:10:23.066Z,1.48
2023-03-31T15:12:52.001Z,1.63
2023-03-31T15:15:20.868Z,1.85
2023-03-31T15:17:48.879Z,3.00
2023-03-31T15:20:24.851Z,1.10
2023-03-31T15:22:53.294Z,4.57
2023-03-31T15:25:22.416Z,4.00
2023-03-31T15:27:56.017Z,2.90
2023-03-31T15:33:01.346Z,2.10
2023-03-31T15:35:43.695Z,1.77
2023-03-31T15:38:12.586Z,2.47
2023-03-31T15:40:41.243Z,0.80
2023-03-31T15:45:51.430Z,0.82
2023-03-31T15:48:54.037Z,0.95
2023-03-31T15:51:25.571Z,1.30
2023-03-31T15:53:53.951Z,0.57
2023-03-31T15:59:27.680Z,0.40
2023-03-31T16:02:04.316Z,1.70
2023-03-31T16:04:37.520Z,1.75
2023-03-31T16:07:35.382Z,0.93
2023-03-31T16:10:12.155Z,0.20
2023-03-31T16:12:54.411Z,0.43
2023-03-31T16:15:25.195Z,1.35
2023-03-31T16:18:02.624Z,0.52
2023-03-31T16:20:40.020Z,0.32
2023-03-31T16:23:16.600Z,0.90
2023-03-31T16:25:44.026Z,0.60
2023-03-31T16:28:15.596Z,0.80
2023-03-31T16:30:43.548Z,0.40
2023-03-31T16:33:12.434Z,0.75
2023-03-31T16:35:42.253Z,0.70
2023-03-31T16:38:12.008Z,1.20
2023-03-31T16:40:43.398Z,0.60
2023-03-31T16:43:16.108Z,0.90
2023-03-31T16:45:57.438Z,0.90
2023-03-31T16:48:26.205Z,0.57
2023-03-31T16:50:54.689Z,0.70
2023-03-31T16:53:23.252Z,0.57
2023-03-31T16:55:54.121Z,0.40
2023-03-31T16:58:24.493Z,0.50
2023-03-31T17:00:52.385Z,0.45
2023-03-31T17:03:20.522Z,0.60
2023-03-31T17:05:50.666Z,0.80
2023-03-31T17:08:17.864Z,0.50
2023-03-31T17:10:54.895Z,0.85
2023-03-31T17:13:26.343Z,0.88
2023-03-31T17:16:01.506Z,0.70
2023-03-31T17:18:40.422Z,0.80
2023-03-31T17:21:09.673Z,0.40
2023-03-31T17:23:38.592Z,0.50
2023-03-31T17:26:09.974Z,0.50
2023-03-31T17:28:37.749Z,0.70
2023-03-31T17:31:12.279Z,0.73
2023-03-31T17:33:41.163Z,0.82
2023-03-31T17:36:08.594Z,0.70
2023-03-31T17:38:35.802Z,0.75
2023-03-31T17:41:36.720Z,0.82
2023-03-31T17:44:12.347Z,0.73
2023-03-31T17:46:39.691Z,1.23
2023-03-31T17:49:07.275Z,0.60
2023-03-31T17:51:38.335Z,0.82
2023-03-31T17:54:05.994Z,0.80
2023-03-31T17:56:33.295Z,0.95
2023-03-31T17:59:00.704Z,0.80
2023-03-31T18:01:31.254Z,0.63
2023-03-31T18:03:58.556Z,0.63
2023-03-31T18:06:25.914Z,0.70
2023-03-31T18:08:53.520Z,0.68
2023-03-31T18:15:29.811Z,0.75
2023-03-31T18:18:04.326Z,0.77
2023-03-31T18:20:33.023Z,0.60
2023-03-31T18:23:01.186Z,0.60
2023-03-31T18:25:28.463Z,0.70
2023-03-31T18:27:56.487Z,0.80
2023-03-31T18:30:23.680Z,0.80
2023-03-31T18:32:51.304Z,0.70
2023-03-31T18:35:19.964Z,1.00
2023-03-31T18:37:47.179Z,1.15
2023-03-31T18:40:15.140Z,0.75
2023-03-31T18:42:42.600Z,0.95
2023-03-31T18:45:10.203Z,0.65
2023-03-31T18:47:37.475Z,0.88
2023-03-31T18:50:04.912Z,0.68
2023-03-31T18:52:33.367Z,0.75
2023-03-31T18:55:00.725Z,0.82
2023-03-31T18:57:28.007Z,0.77
2023-03-31T18:59:56.077Z,0.73
2023-03-31T19:02:23.406Z,0.60
2023-03-31T19:04:50.561Z,0.70
2023-03-31T19:07:18.724Z,0.60
2023-03-31T19:09:46.145Z,0.60
2023-03-31T19:12:13.365Z,0.50
2023-03-31T19:14:41.580Z,0.50
2023-03-31T19:17:09.349Z,0.70
2023-03-31T19:19:36.756Z,0.60
2023-03-31T19:22:04.010Z,0.60
2023-03-31T19:24:31.328Z,0.70
2023-03-31T19:27:00.290Z,0.70
2023-03-31T19:29:28.176Z,0.77
2023-03-31T19:31:56.267Z,0.50
2023-03-31T19:34:23.551Z,0.70
2023-03-31T19:36:51.041Z,0.50
2023-03-31T19:39:18.342Z,0.80
2023-03-31T19:41:45.720Z,0.93
2023-03-31T19:44:25.141Z,0.57
2023-03-31T19:46:53.512Z,0.43
2023-03-31T19:49:21.456Z,0.50
2023-03-31T19:51:48.728Z,0.60
2023-03-31T19:54:16.870Z,0.90
2023-03-31T19:56:44.350Z,0.85
2023-03-31T19:59:11.955Z,0.65
2023-03-31T20:01:39.294Z,0.95
2023-03-31T20:04:07.930Z,0.70
2023-03-31T20:06:35.795Z,0.60
2023-03-31T20:09:03.832Z,0.40
2023-03-31T20:11:32.184Z,1.10
2023-03-31T20:13:59.945Z,0.43
2023-03-31T20:16:29.303Z,0.80
2023-03-31T20:19:01.511Z,0.40
2023-03-31T20:21:30.025Z,0.35
2023-03-31T20:23:58.849Z,0.65
2023-03-31T20:26:29.571Z,0.55
2023-03-31T20:28:58.764Z,0.60
2023-03-31T20:31:27.572Z,0.40
2023-03-31T20:33:55.660Z,0.73
2023-03-31T20:36:24.058Z,0.40
2023-03-31T20:38:52.432Z,0.40
2023-03-31T20:41:20.963Z,0.43
2023-03-31T20:43:48.325Z,0.63
2023-03-31T20:46:15.769Z,0.68
2023-03-31T20:48:45.824Z,0.40
2023-03-31T20:51:14.910Z,0.32
2023-03-31T20:53:46.805Z,0.50
2023-03-31T20:56:18.452Z,0.30
2023-03-31T20:58:46.068Z,0.47
2023-03-31T21:01:14.379Z,0.43
2023-03-31T21:03:42.343Z,0.40
2023-03-31T21:06:11.970Z,0.63
2023-03-31T21:08:39.945Z,0.35
2023-03-31T21:11:07.422Z,0.60
2023-03-31T21:13:35.126Z,0.45
2023-03-31T21:16:04.435Z,0.30
2023-03-31T21:18:33.209Z,0.30
2023-03-31T21:21:01.934Z,0.30
2023-03-31T21:23:29.721Z,0.40
2023-03-31T21:25:58.547Z,0.35
2023-03-31T21:28:28.032Z,0.30
2023-03-31T21:30:57.933Z,0.43
2023-03-31T21:33:25.874Z,0.57
2023-03-31T21:35:53.767Z,0.50
2023-03-31T21:38:21.494Z,0.80
2023-03-31T21:40:48.758Z,0.30
2023-03-31T21:43:16.558Z,0.50
2023-03-31T21:45:43.757Z,0.50
2023-03-31T21:48:11.900Z,0.30
2023-03-31T21:50:40.352Z,0.30
2023-03-31T21:53:08.419Z,0.40
2023-03-31T21:55:37.446Z,0.60
2023-03-31T21:58:06.038Z,0.85
2023-03-31T22:00:33.394Z,0.60
2023-03-31T22:05:33.879Z,0.40
2023-03-31T22:08:01.221Z,1.35
2023-03-31T22:10:28.487Z,0.80
2023-03-31T22:12:56.050Z,1.00
2023-03-31T22:15:25.056Z,0.70
2023-03-31T22:17:52.329Z,1.00
2023-03-31T22:20:19.842Z,0.60
2023-03-31T22:22:47.387Z,0.70
2023-03-31T22:25:14.765Z,0.70
2023-03-31T22:27:42.025Z,0.55
2023-03-31T22:30:09.619Z,0.50
2023-03-31T22:32:37.013Z,0.68
2023-03-31T22:35:04.258Z,0.70
2023-03-31T22:37:31.655Z,0.60
2023-03-31T22:39:58.843Z,0.82
2023-03-31T22:42:26.298Z,0.77
2023-03-31T22:44:53.511Z,0.68
2023-03-31T22:47:20.882Z,0.65
2023-03-31T22:49:48.226Z,0.57
2023-03-31T22:52:15.736Z,0.40
2023-03-31T22:54:42.972Z,0.38
2023-03-31T22:57:10.671Z,0.82
2023-03-31T22:59:37.910Z,0.50
2023-03-31T23:02:05.450Z,0.50
2023-03-31T23:04:32.809Z,0.40
2023-03-31T23:07:00.126Z,0.90
2023-03-31T23:09:29.508Z,0.90
2023-03-31T23:11:56.790Z,0.60
2023-03-31T23:14:24.155Z,0.43
2023-03-31T23:16:51.919Z,0.70
2023-03-31T23:19:19.728Z,0.88
2023-03-31T23:21:47.128Z,0.50
2023-03-31T23:24:14.540Z,1.00
2023-03-31T23:26:41.753Z,0.90
2023-03-31T23:29:09.213Z,0.85
2023-03-31T23:31:36.647Z,0.82
2023-03-31T23:34:04.028Z,1.42
2023-03-31T23:36:31.877Z,0.85
2023-03-31T23:39:03.226Z,0.68
2023-03-31T23:41:30.489Z,0.70
2023-03-31T23:43:57.934Z,0.77
2023-03-31T23:46:26.111Z,0.75
2023-03-31T23:48:53.468Z,0.88
2023-03-31T23:51:21.164Z,0.90
2023-03-31T23:53:48.472Z,0.98
2023-03-31T23:56:15.860Z,0.95
2023-03-31T23:58:44.979Z,0.88
